<?xml version="1.0" encoding="UTF-8" standalone="no" ?>
<gpx xmlns="http://www.topografix.com/GPX/1/1" xmlns:xsi="http://www.w3.org/2001/XMLSchema-instance" xsi:schemaLocation="http://www.topografix.com/GPX/1/1 http://www.topografix.com/GPX/1/1/gpx.xsd" version="1.1" creator="VisuGPX - https://www.visugpx.com">
  <metadata>
    <name>15074042-Mont-Giraud</name>
  </metadata>
  <trk>
    <name><![CDATA[15074042-Mont-Giraud]]></name>
    <trkseg>
      <trkpt lat="44.09819" lon="7.18617">
        <ele>2038</ele>
        <time>2022-07-04T08:44:56Z</time>
      </trkpt>
      <trkpt lat="44.0982" lon="7.18619">
        <ele>2037</ele>
        <time>2022-07-04T08:44:58Z</time>
      </trkpt>
      <trkpt lat="44.09828" lon="7.18629">
        <ele>2038</ele>
        <time>2022-07-04T08:45:13Z</time>
      </trkpt>
      <trkpt lat="44.09817" lon="7.1863">
        <ele>2033</ele>
        <time>2022-07-04T08:45:27Z</time>
      </trkpt>
      <trkpt lat="44.09787" lon="7.18607">
        <ele>2028</ele>
        <time>2022-07-04T08:46:13Z</time>
      </trkpt>
      <trkpt lat="44.09768" lon="7.186">
        <ele>2022</ele>
        <time>2022-07-04T08:46:39Z</time>
      </trkpt>
      <trkpt lat="44.09712" lon="7.18594">
        <ele>2005</ele>
        <time>2022-07-04T08:47:54Z</time>
      </trkpt>
      <trkpt lat="44.09648" lon="7.18563">
        <ele>1995</ele>
        <time>2022-07-04T08:49:25Z</time>
      </trkpt>
      <trkpt lat="44.09624" lon="7.18538">
        <ele>1991</ele>
        <time>2022-07-04T08:50:05Z</time>
      </trkpt>
      <trkpt lat="44.09614" lon="7.18513">
        <ele>1993</ele>
        <time>2022-07-04T08:50:32Z</time>
      </trkpt>
      <trkpt lat="44.09615" lon="7.18505">
        <ele>1996</ele>
        <time>2022-07-04T08:50:40Z</time>
      </trkpt>
      <trkpt lat="44.0964" lon="7.18468">
        <ele>2011</ele>
        <time>2022-07-04T08:51:29Z</time>
      </trkpt>
      <trkpt lat="44.09668" lon="7.18421">
        <ele>2026</ele>
        <time>2022-07-04T08:52:27Z</time>
      </trkpt>
      <trkpt lat="44.09677" lon="7.184">
        <ele>2025</ele>
        <time>2022-07-04T08:52:51Z</time>
      </trkpt>
      <trkpt lat="44.09705" lon="7.18349">
        <ele>2026</ele>
        <time>2022-07-04T08:53:52Z</time>
      </trkpt>
      <trkpt lat="44.09709" lon="7.18334">
        <ele>2025</ele>
        <time>2022-07-04T08:54:07Z</time>
      </trkpt>
      <trkpt lat="44.09719" lon="7.18325">
        <ele>2029</ele>
        <time>2022-07-04T08:54:23Z</time>
      </trkpt>
      <trkpt lat="44.09729" lon="7.18309">
        <ele>2033</ele>
        <time>2022-07-04T08:54:44Z</time>
      </trkpt>
      <trkpt lat="44.09743" lon="7.183">
        <ele>2040</ele>
        <time>2022-07-04T08:55:04Z</time>
      </trkpt>
      <trkpt lat="44.09744" lon="7.18281">
        <ele>2039</ele>
        <time>2022-07-04T08:55:22Z</time>
      </trkpt>
      <trkpt lat="44.09751" lon="7.1825">
        <ele>2041</ele>
        <time>2022-07-04T08:55:54Z</time>
      </trkpt>
      <trkpt lat="44.09749" lon="7.18218">
        <ele>2043</ele>
        <time>2022-07-04T08:56:24Z</time>
      </trkpt>
      <trkpt lat="44.09751" lon="7.18209">
        <ele>2045</ele>
        <time>2022-07-04T08:56:33Z</time>
      </trkpt>
      <trkpt lat="44.09745" lon="7.1817">
        <ele>2046</ele>
        <time>2022-07-04T08:57:12Z</time>
      </trkpt>
      <trkpt lat="44.09727" lon="7.18121">
        <ele>2049</ele>
        <time>2022-07-04T08:58:04Z</time>
      </trkpt>
      <trkpt lat="44.09717" lon="7.18098">
        <ele>2050</ele>
        <time>2022-07-04T08:58:30Z</time>
      </trkpt>
      <trkpt lat="44.0969" lon="7.18063">
        <ele>2047</ele>
        <time>2022-07-04T08:59:19Z</time>
      </trkpt>
      <trkpt lat="44.09682" lon="7.1805">
        <ele>2047</ele>
        <time>2022-07-04T08:59:36Z</time>
      </trkpt>
      <trkpt lat="44.09669" lon="7.18038">
        <ele>2044</ele>
        <time>2022-07-04T08:59:57Z</time>
      </trkpt>
      <trkpt lat="44.09659" lon="7.18033">
        <ele>2040</ele>
        <time>2022-07-04T09:00:11Z</time>
      </trkpt>
      <trkpt lat="44.09648" lon="7.18021">
        <ele>2036</ele>
        <time>2022-07-04T09:00:29Z</time>
      </trkpt>
      <trkpt lat="44.09645" lon="7.18012">
        <ele>2036</ele>
        <time>2022-07-04T09:00:39Z</time>
      </trkpt>
      <trkpt lat="44.09648" lon="7.17995">
        <ele>2039</ele>
        <time>2022-07-04T09:00:56Z</time>
      </trkpt>
      <trkpt lat="44.09656" lon="7.17976">
        <ele>2040</ele>
        <time>2022-07-04T09:01:17Z</time>
      </trkpt>
      <trkpt lat="44.09679" lon="7.17936">
        <ele>2043</ele>
        <time>2022-07-04T09:02:06Z</time>
      </trkpt>
      <trkpt lat="44.09704" lon="7.17897">
        <ele>2040</ele>
        <time>2022-07-04T09:02:56Z</time>
      </trkpt>
      <trkpt lat="44.09711" lon="7.17888">
        <ele>2039</ele>
        <time>2022-07-04T09:03:09Z</time>
      </trkpt>
      <trkpt lat="44.0972" lon="7.17881">
        <ele>2038</ele>
        <time>2022-07-04T09:03:22Z</time>
      </trkpt>
      <trkpt lat="44.09738" lon="7.17883">
        <ele>2044</ele>
        <time>2022-07-04T09:03:47Z</time>
      </trkpt>
      <trkpt lat="44.09759" lon="7.17878">
        <ele>2044</ele>
        <time>2022-07-04T09:04:15Z</time>
      </trkpt>
      <trkpt lat="44.09784" lon="7.17884">
        <ele>2047</ele>
        <time>2022-07-04T09:04:49Z</time>
      </trkpt>
      <trkpt lat="44.09802" lon="7.17886">
        <ele>2047</ele>
        <time>2022-07-04T09:05:13Z</time>
      </trkpt>
      <trkpt lat="44.09805" lon="7.17884">
        <ele>2046</ele>
        <time>2022-07-04T09:05:17Z</time>
      </trkpt>
      <trkpt lat="44.09812" lon="7.17888">
        <ele>2048</ele>
        <time>2022-07-04T09:05:28Z</time>
      </trkpt>
      <trkpt lat="44.09819" lon="7.17894">
        <ele>2053</ele>
        <time>2022-07-04T09:05:38Z</time>
      </trkpt>
      <trkpt lat="44.09842" lon="7.17903">
        <ele>2059</ele>
        <time>2022-07-04T09:06:10Z</time>
      </trkpt>
      <trkpt lat="44.09861" lon="7.17901">
        <ele>2056</ele>
        <time>2022-07-04T09:06:36Z</time>
      </trkpt>
      <trkpt lat="44.09871" lon="7.17907">
        <ele>2060</ele>
        <time>2022-07-04T09:06:50Z</time>
      </trkpt>
      <trkpt lat="44.09883" lon="7.17905">
        <ele>2057</ele>
        <time>2022-07-04T09:07:06Z</time>
      </trkpt>
      <trkpt lat="44.09896" lon="7.17909">
        <ele>2059</ele>
        <time>2022-07-04T09:07:24Z</time>
      </trkpt>
      <trkpt lat="44.09919" lon="7.17895">
        <ele>2043</ele>
        <time>2022-07-04T09:07:58Z</time>
      </trkpt>
      <trkpt lat="44.09924" lon="7.17897">
        <ele>2043</ele>
        <time>2022-07-04T09:08:05Z</time>
      </trkpt>
      <trkpt lat="44.09925" lon="7.17907">
        <ele>2050</ele>
        <time>2022-07-04T09:08:14Z</time>
      </trkpt>
      <trkpt lat="44.09929" lon="7.17914">
        <ele>2054</ele>
        <time>2022-07-04T09:08:23Z</time>
      </trkpt>
      <trkpt lat="44.09945" lon="7.1793">
        <ele>2051</ele>
        <time>2022-07-04T09:08:49Z</time>
      </trkpt>
      <trkpt lat="44.09965" lon="7.17944">
        <ele>2044</ele>
        <time>2022-07-04T09:09:19Z</time>
      </trkpt>
      <trkpt lat="44.09978" lon="7.17963">
        <ele>2042</ele>
        <time>2022-07-04T09:09:44Z</time>
      </trkpt>
      <trkpt lat="44.09992" lon="7.17965">
        <ele>2034</ele>
        <time>2022-07-04T09:10:03Z</time>
      </trkpt>
      <trkpt lat="44.09999" lon="7.17962">
        <ele>2028</ele>
        <time>2022-07-04T09:10:13Z</time>
      </trkpt>
      <trkpt lat="44.10006" lon="7.17963">
        <ele>2028</ele>
        <time>2022-07-04T09:10:22Z</time>
      </trkpt>
      <trkpt lat="44.10017" lon="7.17955">
        <ele>2026</ele>
        <time>2022-07-04T09:10:39Z</time>
      </trkpt>
      <trkpt lat="44.10023" lon="7.17955">
        <ele>2026</ele>
        <time>2022-07-04T09:10:47Z</time>
      </trkpt>
      <trkpt lat="44.10028" lon="7.1796">
        <ele>2027</ele>
        <time>2022-07-04T09:10:55Z</time>
      </trkpt>
      <trkpt lat="44.10039" lon="7.17965">
        <ele>2028</ele>
        <time>2022-07-04T09:11:10Z</time>
      </trkpt>
      <trkpt lat="44.1003" lon="7.17943">
        <ele>2023</ele>
        <time>2022-07-04T09:11:35Z</time>
      </trkpt>
      <trkpt lat="44.10035" lon="7.17938">
        <ele>2022</ele>
        <time>2022-07-04T09:11:43Z</time>
      </trkpt>
      <trkpt lat="44.10047" lon="7.17958">
        <ele>2027</ele>
        <time>2022-07-04T09:12:08Z</time>
      </trkpt>
      <trkpt lat="44.10056" lon="7.17965">
        <ele>2028</ele>
        <time>2022-07-04T09:12:22Z</time>
      </trkpt>
      <trkpt lat="44.1008" lon="7.17943">
        <ele>2025</ele>
        <time>2022-07-04T09:13:00Z</time>
      </trkpt>
      <trkpt lat="44.10087" lon="7.17924">
        <ele>2025</ele>
        <time>2022-07-04T09:13:20Z</time>
      </trkpt>
      <trkpt lat="44.10106" lon="7.17882">
        <ele>2027</ele>
        <time>2022-07-04T09:14:08Z</time>
      </trkpt>
      <trkpt lat="44.10112" lon="7.17875">
        <ele>2029</ele>
        <time>2022-07-04T09:14:18Z</time>
      </trkpt>
      <trkpt lat="44.10117" lon="7.17874">
        <ele>2030</ele>
        <time>2022-07-04T09:14:25Z</time>
      </trkpt>
      <trkpt lat="44.1013" lon="7.17855">
        <ele>2032</ele>
        <time>2022-07-04T09:14:50Z</time>
      </trkpt>
      <trkpt lat="44.10133" lon="7.17846">
        <ele>2031</ele>
        <time>2022-07-04T09:15:00Z</time>
      </trkpt>
      <trkpt lat="44.10159" lon="7.17821">
        <ele>2034</ele>
        <time>2022-07-04T09:15:42Z</time>
      </trkpt>
      <trkpt lat="44.10181" lon="7.17799">
        <ele>2039</ele>
        <time>2022-07-04T09:16:18Z</time>
      </trkpt>
      <trkpt lat="44.10208" lon="7.17749">
        <ele>2042</ele>
        <time>2022-07-04T09:17:18Z</time>
      </trkpt>
      <trkpt lat="44.10212" lon="7.17728">
        <ele>2038</ele>
        <time>2022-07-04T09:17:39Z</time>
      </trkpt>
      <trkpt lat="44.10218" lon="7.17709">
        <ele>2036</ele>
        <time>2022-07-04T09:17:59Z</time>
      </trkpt>
      <trkpt lat="44.10214" lon="7.17667">
        <ele>2020</ele>
        <time>2022-07-04T09:18:39Z</time>
      </trkpt>
      <trkpt lat="44.1022" lon="7.17629">
        <ele>2019</ele>
        <time>2022-07-04T09:19:17Z</time>
      </trkpt>
      <trkpt lat="44.10215" lon="7.17616">
        <ele>2013</ele>
        <time>2022-07-04T09:19:31Z</time>
      </trkpt>
      <trkpt lat="44.10219" lon="7.17589">
        <ele>2012</ele>
        <time>2022-07-04T09:19:57Z</time>
      </trkpt>
      <trkpt lat="44.10209" lon="7.17577">
        <ele>2004</ele>
        <time>2022-07-04T09:20:15Z</time>
      </trkpt>
      <trkpt lat="44.10201" lon="7.17557">
        <ele>1999</ele>
        <time>2022-07-04T09:20:37Z</time>
      </trkpt>
      <trkpt lat="44.10197" lon="7.17533">
        <ele>1997</ele>
        <time>2022-07-04T09:21:00Z</time>
      </trkpt>
      <trkpt lat="44.10179" lon="7.17491">
        <ele>1985</ele>
        <time>2022-07-04T09:21:47Z</time>
      </trkpt>
      <trkpt lat="44.10174" lon="7.17486">
        <ele>1981</ele>
        <time>2022-07-04T09:21:55Z</time>
      </trkpt>
      <trkpt lat="44.10171" lon="7.17462">
        <ele>1980</ele>
        <time>2022-07-04T09:22:19Z</time>
      </trkpt>
      <trkpt lat="44.10152" lon="7.17423">
        <ele>1972</ele>
        <time>2022-07-04T09:23:04Z</time>
      </trkpt>
      <trkpt lat="44.10146" lon="7.17404">
        <ele>1972</ele>
        <time>2022-07-04T09:23:24Z</time>
      </trkpt>
      <trkpt lat="44.10145" lon="7.17384">
        <ele>1975</ele>
        <time>2022-07-04T09:23:43Z</time>
      </trkpt>
      <trkpt lat="44.10129" lon="7.17336">
        <ele>1976</ele>
        <time>2022-07-04T09:24:34Z</time>
      </trkpt>
      <trkpt lat="44.10118" lon="7.17313">
        <ele>1971</ele>
        <time>2022-07-04T09:25:00Z</time>
      </trkpt>
      <trkpt lat="44.10114" lon="7.17268">
        <ele>1969</ele>
        <time>2022-07-04T09:25:44Z</time>
      </trkpt>
      <trkpt lat="44.10118" lon="7.17239">
        <ele>1970</ele>
        <time>2022-07-04T09:26:12Z</time>
      </trkpt>
      <trkpt lat="44.10144" lon="7.17169">
        <ele>1972</ele>
        <time>2022-07-04T09:27:28Z</time>
      </trkpt>
      <trkpt lat="44.1016" lon="7.17113">
        <ele>1976</ele>
        <time>2022-07-04T09:28:25Z</time>
      </trkpt>
      <trkpt lat="44.10172" lon="7.17096">
        <ele>1981</ele>
        <time>2022-07-04T09:28:48Z</time>
      </trkpt>
      <trkpt lat="44.10171" lon="7.17082">
        <ele>1979</ele>
        <time>2022-07-04T09:29:02Z</time>
      </trkpt>
      <trkpt lat="44.10173" lon="7.17072">
        <ele>1982</ele>
        <time>2022-07-04T09:29:12Z</time>
      </trkpt>
      <trkpt lat="44.10173" lon="7.17043">
        <ele>1986</ele>
        <time>2022-07-04T09:29:39Z</time>
      </trkpt>
      <trkpt lat="44.10176" lon="7.17032">
        <ele>1989</ele>
        <time>2022-07-04T09:29:51Z</time>
      </trkpt>
      <trkpt lat="44.10103" lon="7.16979">
        <ele>1981</ele>
        <time>2022-07-04T09:31:40Z</time>
      </trkpt>
      <trkpt lat="44.10073" lon="7.16945">
        <ele>1987</ele>
        <time>2022-07-04T09:32:32Z</time>
      </trkpt>
      <trkpt lat="44.10055" lon="7.16937">
        <ele>1990</ele>
        <time>2022-07-04T09:32:57Z</time>
      </trkpt>
      <trkpt lat="44.10034" lon="7.16938">
        <ele>1989</ele>
        <time>2022-07-04T09:33:25Z</time>
      </trkpt>
      <trkpt lat="44.10016" lon="7.16931">
        <ele>1992</ele>
        <time>2022-07-04T09:33:50Z</time>
      </trkpt>
      <trkpt lat="44.09979" lon="7.16913">
        <ele>1993</ele>
        <time>2022-07-04T09:34:43Z</time>
      </trkpt>
      <trkpt lat="44.0995" lon="7.16892">
        <ele>1992</ele>
        <time>2022-07-04T09:35:26Z</time>
      </trkpt>
      <trkpt lat="44.09913" lon="7.16834">
        <ele>2003</ele>
        <time>2022-07-04T09:36:41Z</time>
      </trkpt>
      <trkpt lat="44.09852" lon="7.16776">
        <ele>2006</ele>
        <time>2022-07-04T09:38:19Z</time>
      </trkpt>
      <trkpt lat="44.09815" lon="7.16761">
        <ele>2001</ele>
        <time>2022-07-04T09:39:11Z</time>
      </trkpt>
      <trkpt lat="44.09805" lon="7.16755">
        <ele>2001</ele>
        <time>2022-07-04T09:39:25Z</time>
      </trkpt>
      <trkpt lat="44.09756" lon="7.16696">
        <ele>2010</ele>
        <time>2022-07-04T09:40:52Z</time>
      </trkpt>
      <trkpt lat="44.09708" lon="7.16644">
        <ele>2023</ele>
        <time>2022-07-04T09:42:13Z</time>
      </trkpt>
      <trkpt lat="44.09688" lon="7.16637">
        <ele>2022</ele>
        <time>2022-07-04T09:42:40Z</time>
      </trkpt>
      <trkpt lat="44.09658" lon="7.16637">
        <ele>2016</ele>
        <time>2022-07-04T09:43:20Z</time>
      </trkpt>
      <trkpt lat="44.09598" lon="7.16624">
        <ele>2009</ele>
        <time>2022-07-04T09:44:41Z</time>
      </trkpt>
      <trkpt lat="44.09592" lon="7.16581">
        <ele>2021</ele>
        <time>2022-07-04T09:45:23Z</time>
      </trkpt>
      <trkpt lat="44.09586" lon="7.16572">
        <ele>2020</ele>
        <time>2022-07-04T09:45:35Z</time>
      </trkpt>
      <trkpt lat="44.09596" lon="7.16541">
        <ele>2023</ele>
        <time>2022-07-04T09:46:08Z</time>
      </trkpt>
      <trkpt lat="44.09611" lon="7.16521">
        <ele>2029</ele>
        <time>2022-07-04T09:46:35Z</time>
      </trkpt>
      <trkpt lat="44.0963" lon="7.16534">
        <ele>2035</ele>
        <time>2022-07-04T09:47:04Z</time>
      </trkpt>
      <trkpt lat="44.09636" lon="7.16527">
        <ele>2038</ele>
        <time>2022-07-04T09:47:14Z</time>
      </trkpt>
      <trkpt lat="44.09643" lon="7.16507">
        <ele>2043</ele>
        <time>2022-07-04T09:47:35Z</time>
      </trkpt>
      <trkpt lat="44.09654" lon="7.16462">
        <ele>2043</ele>
        <time>2022-07-04T09:48:21Z</time>
      </trkpt>
      <trkpt lat="44.0967" lon="7.16443">
        <ele>2048</ele>
        <time>2022-07-04T09:48:49Z</time>
      </trkpt>
      <trkpt lat="44.09701" lon="7.16414">
        <ele>2057</ele>
        <time>2022-07-04T09:49:39Z</time>
      </trkpt>
      <trkpt lat="44.0972" lon="7.16392">
        <ele>2060</ele>
        <time>2022-07-04T09:50:12Z</time>
      </trkpt>
      <trkpt lat="44.09757" lon="7.1634">
        <ele>2067</ele>
        <time>2022-07-04T09:51:22Z</time>
      </trkpt>
      <trkpt lat="44.0978" lon="7.16263">
        <ele>2064</ele>
        <time>2022-07-04T09:52:42Z</time>
      </trkpt>
      <trkpt lat="44.09789" lon="7.16182">
        <ele>2057</ele>
        <time>2022-07-04T09:54:00Z</time>
      </trkpt>
      <trkpt lat="44.09796" lon="7.16071">
        <ele>2045</ele>
        <time>2022-07-04T09:55:47Z</time>
      </trkpt>
      <trkpt lat="44.09805" lon="7.16041">
        <ele>2046</ele>
        <time>2022-07-04T09:56:18Z</time>
      </trkpt>
      <trkpt lat="44.09815" lon="7.16023">
        <ele>2048</ele>
        <time>2022-07-04T09:56:40Z</time>
      </trkpt>
      <trkpt lat="44.09858" lon="7.15965">
        <ele>2061</ele>
        <time>2022-07-04T09:58:00Z</time>
      </trkpt>
      <trkpt lat="44.09867" lon="7.15956">
        <ele>2066</ele>
        <time>2022-07-04T09:58:15Z</time>
      </trkpt>
      <trkpt lat="44.09872" lon="7.15899">
        <ele>2065</ele>
        <time>2022-07-04T09:59:10Z</time>
      </trkpt>
      <trkpt lat="44.09866" lon="7.15871">
        <ele>2063</ele>
        <time>2022-07-04T09:59:38Z</time>
      </trkpt>
      <trkpt lat="44.09858" lon="7.1585">
        <ele>2059</ele>
        <time>2022-07-04T10:00:01Z</time>
      </trkpt>
      <trkpt lat="44.09829" lon="7.15761">
        <ele>2052</ele>
        <time>2022-07-04T10:01:34Z</time>
      </trkpt>
      <trkpt lat="44.09823" lon="7.15729">
        <ele>2051</ele>
        <time>2022-07-04T10:02:06Z</time>
      </trkpt>
      <trkpt lat="44.09814" lon="7.15586">
        <ele>2040</ele>
        <time>2022-07-04T10:04:24Z</time>
      </trkpt>
      <trkpt lat="44.09818" lon="7.15563">
        <ele>2042</ele>
        <time>2022-07-04T10:04:46Z</time>
      </trkpt>
      <trkpt lat="44.09817" lon="7.15501">
        <ele>2040</ele>
        <time>2022-07-04T10:05:46Z</time>
      </trkpt>
      <trkpt lat="44.09822" lon="7.15454">
        <ele>2042</ele>
        <time>2022-07-04T10:06:31Z</time>
      </trkpt>
      <trkpt lat="44.09825" lon="7.1544">
        <ele>2044</ele>
        <time>2022-07-04T10:06:45Z</time>
      </trkpt>
      <trkpt lat="44.09826" lon="7.15422">
        <ele>2044</ele>
        <time>2022-07-04T10:07:03Z</time>
      </trkpt>
      <trkpt lat="44.09842" lon="7.15402">
        <ele>2047</ele>
        <time>2022-07-04T10:07:31Z</time>
      </trkpt>
      <trkpt lat="44.0986" lon="7.15392">
        <ele>2050</ele>
        <time>2022-07-04T10:07:57Z</time>
      </trkpt>
      <trkpt lat="44.09888" lon="7.15386">
        <ele>2056</ele>
        <time>2022-07-04T10:08:35Z</time>
      </trkpt>
      <trkpt lat="44.09915" lon="7.15372">
        <ele>2057</ele>
        <time>2022-07-04T10:09:13Z</time>
      </trkpt>
      <trkpt lat="44.09967" lon="7.15355">
        <ele>2060</ele>
        <time>2022-07-04T10:10:25Z</time>
      </trkpt>
      <trkpt lat="44.09997" lon="7.15332">
        <ele>2057</ele>
        <time>2022-07-04T10:11:10Z</time>
      </trkpt>
      <trkpt lat="44.10025" lon="7.15324">
        <ele>2067</ele>
        <time>2022-07-04T10:11:48Z</time>
      </trkpt>
      <trkpt lat="44.10034" lon="7.1531">
        <ele>2070</ele>
        <time>2022-07-04T10:12:06Z</time>
      </trkpt>
      <trkpt lat="44.1005" lon="7.153">
        <ele>2076</ele>
        <time>2022-07-04T10:12:30Z</time>
      </trkpt>
      <trkpt lat="44.10058" lon="7.15301">
        <ele>2079</ele>
        <time>2022-07-04T10:12:41Z</time>
      </trkpt>
      <trkpt lat="44.10061" lon="7.15293">
        <ele>2080</ele>
        <time>2022-07-04T10:12:49Z</time>
      </trkpt>
      <trkpt lat="44.10059" lon="7.15282">
        <ele>2079</ele>
        <time>2022-07-04T10:13:00Z</time>
      </trkpt>
      <trkpt lat="44.10046" lon="7.15265">
        <ele>2074</ele>
        <time>2022-07-04T10:13:24Z</time>
      </trkpt>
      <trkpt lat="44.10035" lon="7.15257">
        <ele>2070</ele>
        <time>2022-07-04T10:13:40Z</time>
      </trkpt>
      <trkpt lat="44.10022" lon="7.15254">
        <ele>2065</ele>
        <time>2022-07-04T10:13:58Z</time>
      </trkpt>
      <trkpt lat="44.09997" lon="7.15213">
        <ele>2063</ele>
        <time>2022-07-04T10:14:50Z</time>
      </trkpt>
      <trkpt lat="44.09942" lon="7.15087">
        <ele>2060</ele>
        <time>2022-07-04T10:17:11Z</time>
      </trkpt>
      <trkpt lat="44.09928" lon="7.15065">
        <ele>2056</ele>
        <time>2022-07-04T10:17:39Z</time>
      </trkpt>
      <trkpt lat="44.09911" lon="7.15016">
        <ele>2057</ele>
        <time>2022-07-04T10:18:31Z</time>
      </trkpt>
      <trkpt lat="44.09909" lon="7.15001">
        <ele>2059</ele>
        <time>2022-07-04T10:18:46Z</time>
      </trkpt>
      <trkpt lat="44.099" lon="7.14977">
        <ele>2057</ele>
        <time>2022-07-04T10:19:12Z</time>
      </trkpt>
      <trkpt lat="44.09899" lon="7.14963">
        <ele>2058</ele>
        <time>2022-07-04T10:19:25Z</time>
      </trkpt>
      <trkpt lat="44.09902" lon="7.14931">
        <ele>2061</ele>
        <time>2022-07-04T10:19:56Z</time>
      </trkpt>
      <trkpt lat="44.09925" lon="7.14857">
        <ele>2068</ele>
        <time>2022-07-04T10:21:13Z</time>
      </trkpt>
      <trkpt lat="44.09933" lon="7.14814">
        <ele>2070</ele>
        <time>2022-07-04T10:21:56Z</time>
      </trkpt>
      <trkpt lat="44.09951" lon="7.14742">
        <ele>2071</ele>
        <time>2022-07-04T10:23:09Z</time>
      </trkpt>
      <trkpt lat="44.0997" lon="7.14699">
        <ele>2072</ele>
        <time>2022-07-04T10:23:57Z</time>
      </trkpt>
      <trkpt lat="44.09972" lon="7.14647">
        <ele>2072</ele>
        <time>2022-07-04T10:24:47Z</time>
      </trkpt>
      <trkpt lat="44.09972" lon="7.14654">
        <ele>2072</ele>
        <time>2022-07-04T10:24:54Z</time>
      </trkpt>
      <trkpt lat="44.10003" lon="7.14631">
        <ele>2075</ele>
        <time>2022-07-04T10:25:41Z</time>
      </trkpt>
      <trkpt lat="44.10026" lon="7.14608">
        <ele>2080</ele>
        <time>2022-07-04T10:26:19Z</time>
      </trkpt>
      <trkpt lat="44.1004" lon="7.14598">
        <ele>2083</ele>
        <time>2022-07-04T10:26:40Z</time>
      </trkpt>
      <trkpt lat="44.1006" lon="7.14576">
        <ele>2086</ele>
        <time>2022-07-04T10:27:14Z</time>
      </trkpt>
      <trkpt lat="44.10083" lon="7.1456">
        <ele>2090</ele>
        <time>2022-07-04T10:27:48Z</time>
      </trkpt>
      <trkpt lat="44.10114" lon="7.14548">
        <ele>2096</ele>
        <time>2022-07-04T10:28:31Z</time>
      </trkpt>
      <trkpt lat="44.10133" lon="7.14544">
        <ele>2100</ele>
        <time>2022-07-04T10:28:57Z</time>
      </trkpt>
      <trkpt lat="44.10167" lon="7.14548">
        <ele>2107</ele>
        <time>2022-07-04T10:29:42Z</time>
      </trkpt>
      <trkpt lat="44.10184" lon="7.14545">
        <ele>2112</ele>
        <time>2022-07-04T10:30:05Z</time>
      </trkpt>
      <trkpt lat="44.10275" lon="7.14546">
        <ele>2137</ele>
        <time>2022-07-04T10:32:06Z</time>
      </trkpt>
      <trkpt lat="44.1031" lon="7.14543">
        <ele>2143</ele>
        <time>2022-07-04T10:32:53Z</time>
      </trkpt>
      <trkpt lat="44.10322" lon="7.1454">
        <ele>2146</ele>
        <time>2022-07-04T10:33:10Z</time>
      </trkpt>
      <trkpt lat="44.10331" lon="7.14531">
        <ele>2147</ele>
        <time>2022-07-04T10:33:24Z</time>
      </trkpt>
      <trkpt lat="44.10365" lon="7.14527">
        <ele>2157</ele>
        <time>2022-07-04T10:34:10Z</time>
      </trkpt>
      <trkpt lat="44.10391" lon="7.14519">
        <ele>2164</ele>
        <time>2022-07-04T10:34:45Z</time>
      </trkpt>
      <trkpt lat="44.10418" lon="7.14517">
        <ele>2172</ele>
        <time>2022-07-04T10:35:21Z</time>
      </trkpt>
      <trkpt lat="44.10437" lon="7.14528">
        <ele>2179</ele>
        <time>2022-07-04T10:35:49Z</time>
      </trkpt>
      <trkpt lat="44.10459" lon="7.14547">
        <ele>2186</ele>
        <time>2022-07-04T10:36:23Z</time>
      </trkpt>
      <trkpt lat="44.10472" lon="7.14582">
        <ele>2190</ele>
        <time>2022-07-04T10:37:01Z</time>
      </trkpt>
      <trkpt lat="44.10488" lon="7.14589">
        <ele>2196</ele>
        <time>2022-07-04T10:37:24Z</time>
      </trkpt>
      <trkpt lat="44.10524" lon="7.1459">
        <ele>2206</ele>
        <time>2022-07-04T10:38:12Z</time>
      </trkpt>
      <trkpt lat="44.10543" lon="7.14597">
        <ele>2212</ele>
        <time>2022-07-04T10:38:38Z</time>
      </trkpt>
      <trkpt lat="44.10571" lon="7.14602">
        <ele>2218</ele>
        <time>2022-07-04T10:39:16Z</time>
      </trkpt>
      <trkpt lat="44.10594" lon="7.14621">
        <ele>2226</ele>
        <time>2022-07-04T10:39:51Z</time>
      </trkpt>
      <trkpt lat="44.10603" lon="7.14617">
        <ele>2228</ele>
        <time>2022-07-04T10:40:04Z</time>
      </trkpt>
      <trkpt lat="44.10625" lon="7.14626">
        <ele>2234</ele>
        <time>2022-07-04T10:40:34Z</time>
      </trkpt>
      <trkpt lat="44.10659" lon="7.14632">
        <ele>2242</ele>
        <time>2022-07-04T10:41:20Z</time>
      </trkpt>
      <trkpt lat="44.10682" lon="7.14654">
        <ele>2247</ele>
        <time>2022-07-04T10:41:57Z</time>
      </trkpt>
      <trkpt lat="44.10762" lon="7.14723">
        <ele>2273</ele>
        <time>2022-07-04T10:44:03Z</time>
      </trkpt>
      <trkpt lat="44.10789" lon="7.14733">
        <ele>2281</ele>
        <time>2022-07-04T10:44:40Z</time>
      </trkpt>
      <trkpt lat="44.10834" lon="7.14765">
        <ele>2294</ele>
        <time>2022-07-04T10:45:48Z</time>
      </trkpt>
      <trkpt lat="44.10951" lon="7.1486">
        <ele>2340</ele>
        <time>2022-07-04T10:48:48Z</time>
      </trkpt>
      <trkpt lat="44.10972" lon="7.14853">
        <ele>2351</ele>
        <time>2022-07-04T10:49:17Z</time>
      </trkpt>
      <trkpt lat="44.10997" lon="7.14905">
        <ele>2360</ele>
        <time>2022-07-04T10:50:17Z</time>
      </trkpt>
      <trkpt lat="44.1099" lon="7.14939">
        <ele>2364</ele>
        <time>2022-07-04T10:50:51Z</time>
      </trkpt>
      <trkpt lat="44.11014" lon="7.14936">
        <ele>2372</ele>
        <time>2022-07-04T10:51:23Z</time>
      </trkpt>
      <trkpt lat="44.11009" lon="7.14974">
        <ele>2380</ele>
        <time>2022-07-04T10:52:00Z</time>
      </trkpt>
      <trkpt lat="44.11038" lon="7.14999">
        <ele>2394</ele>
        <time>2022-07-04T10:52:46Z</time>
      </trkpt>
      <trkpt lat="44.11054" lon="7.14987">
        <ele>2395</ele>
        <time>2022-07-04T10:53:10Z</time>
      </trkpt>
      <trkpt lat="44.1107" lon="7.14953">
        <ele>2396</ele>
        <time>2022-07-04T10:53:49Z</time>
      </trkpt>
      <trkpt lat="44.11075" lon="7.1498">
        <ele>2400</ele>
        <time>2022-07-04T10:54:16Z</time>
      </trkpt>
      <trkpt lat="44.11087" lon="7.14962">
        <ele>2403</ele>
        <time>2022-07-04T10:54:39Z</time>
      </trkpt>
      <trkpt lat="44.11094" lon="7.14987">
        <ele>2406</ele>
        <time>2022-07-04T10:55:05Z</time>
      </trkpt>
      <trkpt lat="44.11114" lon="7.14951">
        <ele>2413</ele>
        <time>2022-07-04T10:55:49Z</time>
      </trkpt>
      <trkpt lat="44.1118" lon="7.15052">
        <ele>2438</ele>
        <time>2022-07-04T10:57:59Z</time>
      </trkpt>
      <trkpt lat="44.11131" lon="7.15202">
        <ele>2457</ele>
        <time>2022-07-04T11:00:37Z</time>
      </trkpt>
      <trkpt lat="44.11081" lon="7.15293">
        <ele>2490</ele>
        <time>2022-07-04T11:02:27Z</time>
      </trkpt>
      <trkpt lat="44.11021" lon="7.15337">
        <ele>2522</ele>
        <time>2022-07-04T11:03:58Z</time>
      </trkpt>
      <trkpt lat="44.11011" lon="7.15375">
        <ele>2535</ele>
        <time>2022-07-04T11:04:36Z</time>
      </trkpt>
      <trkpt lat="44.11004" lon="7.15385">
        <ele>2541</ele>
        <time>2022-07-04T11:04:50Z</time>
      </trkpt>
      <trkpt lat="44.10987" lon="7.15465">
        <ele>2552</ele>
        <time>2022-07-04T11:06:10Z</time>
      </trkpt>
      <trkpt lat="44.10979" lon="7.15574">
        <ele>2561</ele>
        <time>2022-07-04T11:07:55Z</time>
      </trkpt>
      <trkpt lat="44.10996" lon="7.15879">
        <ele>2586</ele>
        <time>2022-07-04T11:12:48Z</time>
      </trkpt>
      <trkpt lat="44.1102" lon="7.15941">
        <ele>2582</ele>
        <time>2022-07-04T11:13:55Z</time>
      </trkpt>
      <trkpt lat="44.11025" lon="7.15947">
        <ele>2580</ele>
        <time>2022-07-04T11:14:04Z</time>
      </trkpt>
      <trkpt lat="44.11074" lon="7.16015">
        <ele>2568</ele>
        <time>2022-07-04T11:15:36Z</time>
      </trkpt>
      <trkpt lat="44.11073" lon="7.16034">
        <ele>2565</ele>
        <time>2022-07-04T11:15:55Z</time>
      </trkpt>
      <trkpt lat="44.11082" lon="7.16084">
        <ele>2556</ele>
        <time>2022-07-04T11:16:44Z</time>
      </trkpt>
      <trkpt lat="44.1112" lon="7.16118">
        <ele>2538</ele>
        <time>2022-07-04T11:17:44Z</time>
      </trkpt>
      <trkpt lat="44.11146" lon="7.16172">
        <ele>2530</ele>
        <time>2022-07-04T11:18:47Z</time>
      </trkpt>
      <trkpt lat="44.11159" lon="7.16268">
        <ele>2510</ele>
        <time>2022-07-04T11:20:20Z</time>
      </trkpt>
      <trkpt lat="44.11156" lon="7.16342">
        <ele>2492</ele>
        <time>2022-07-04T11:21:31Z</time>
      </trkpt>
      <trkpt lat="44.11159" lon="7.16369">
        <ele>2489</ele>
        <time>2022-07-04T11:21:57Z</time>
      </trkpt>
      <trkpt lat="44.11154" lon="7.16415">
        <ele>2481</ele>
        <time>2022-07-04T11:22:42Z</time>
      </trkpt>
      <trkpt lat="44.11096" lon="7.16607">
        <ele>2481</ele>
        <time>2022-07-04T11:26:02Z</time>
      </trkpt>
      <trkpt lat="44.11089" lon="7.16652">
        <ele>2487</ele>
        <time>2022-07-04T11:26:46Z</time>
      </trkpt>
      <trkpt lat="44.11082" lon="7.16733">
        <ele>2498</ele>
        <time>2022-07-04T11:28:04Z</time>
      </trkpt>
      <trkpt lat="44.11057" lon="7.16886">
        <ele>2503</ele>
        <time>2022-07-04T11:30:34Z</time>
      </trkpt>
      <trkpt lat="44.11045" lon="7.16939">
        <ele>2492</ele>
        <time>2022-07-04T11:31:27Z</time>
      </trkpt>
      <trkpt lat="44.11049" lon="7.16989">
        <ele>2485</ele>
        <time>2022-07-04T11:32:16Z</time>
      </trkpt>
      <trkpt lat="44.11044" lon="7.17054">
        <ele>2473</ele>
        <time>2022-07-04T11:33:18Z</time>
      </trkpt>
      <trkpt lat="44.11022" lon="7.17143">
        <ele>2479</ele>
        <time>2022-07-04T11:34:48Z</time>
      </trkpt>
      <trkpt lat="44.11004" lon="7.17167">
        <ele>2492</ele>
        <time>2022-07-04T11:35:22Z</time>
      </trkpt>
      <trkpt lat="44.10986" lon="7.17203">
        <ele>2491</ele>
        <time>2022-07-04T11:36:04Z</time>
      </trkpt>
      <trkpt lat="44.10943" lon="7.17235">
        <ele>2494</ele>
        <time>2022-07-04T11:37:09Z</time>
      </trkpt>
      <trkpt lat="44.10919" lon="7.17311">
        <ele>2482</ele>
        <time>2022-07-04T11:38:28Z</time>
      </trkpt>
      <trkpt lat="44.10956" lon="7.17294">
        <ele>2486</ele>
        <time>2022-07-04T11:39:20Z</time>
      </trkpt>
      <trkpt lat="44.10973" lon="7.17299">
        <ele>2485</ele>
        <time>2022-07-04T11:39:44Z</time>
      </trkpt>
      <trkpt lat="44.1098" lon="7.17342">
        <ele>2479</ele>
        <time>2022-07-04T11:40:26Z</time>
      </trkpt>
      <trkpt lat="44.11026" lon="7.17381">
        <ele>2475</ele>
        <time>2022-07-04T11:41:38Z</time>
      </trkpt>
      <trkpt lat="44.11037" lon="7.1741">
        <ele>2477</ele>
        <time>2022-07-04T11:42:09Z</time>
      </trkpt>
      <trkpt lat="44.11041" lon="7.17417">
        <ele>2478</ele>
        <time>2022-07-04T11:42:18Z</time>
      </trkpt>
      <trkpt lat="44.11041" lon="7.17428">
        <ele>2476</ele>
        <time>2022-07-04T11:42:28Z</time>
      </trkpt>
      <trkpt lat="44.11083" lon="7.17473">
        <ele>2485</ele>
        <time>2022-07-04T11:43:39Z</time>
      </trkpt>
      <trkpt lat="44.11134" lon="7.17513">
        <ele>2489</ele>
        <time>2022-07-04T11:44:57Z</time>
      </trkpt>
      <trkpt lat="44.11147" lon="7.17537">
        <ele>2493</ele>
        <time>2022-07-04T11:45:26Z</time>
      </trkpt>
      <trkpt lat="44.112" lon="7.17565">
        <ele>2509</ele>
        <time>2022-07-04T11:46:41Z</time>
      </trkpt>
      <trkpt lat="44.11273" lon="7.17587">
        <ele>2537</ele>
        <time>2022-07-04T11:48:21Z</time>
      </trkpt>
      <trkpt lat="44.11302" lon="7.17605">
        <ele>2547</ele>
        <time>2022-07-04T11:49:03Z</time>
      </trkpt>
      <trkpt lat="44.1138" lon="7.17604">
        <ele>2580</ele>
        <time>2022-07-04T11:50:48Z</time>
      </trkpt>
      <trkpt lat="44.11398" lon="7.17602">
        <ele>2587</ele>
        <time>2022-07-04T11:51:12Z</time>
      </trkpt>
      <trkpt lat="44.11432" lon="7.1764">
        <ele>2597</ele>
        <time>2022-07-04T11:52:10Z</time>
      </trkpt>
      <trkpt lat="44.11462" lon="7.17641">
        <ele>2600</ele>
        <time>2022-07-04T11:52:50Z</time>
      </trkpt>
      <trkpt lat="44.11493" lon="7.17625">
        <ele>2605</ele>
        <time>2022-07-04T11:53:34Z</time>
      </trkpt>
      <trkpt lat="44.11535" lon="7.17612">
        <ele>2605</ele>
        <time>2022-07-04T11:54:31Z</time>
      </trkpt>
      <trkpt lat="44.11616" lon="7.17567">
        <ele>2604</ele>
        <time>2022-07-04T11:56:28Z</time>
      </trkpt>
      <trkpt lat="44.11633" lon="7.17555">
        <ele>2605</ele>
        <time>2022-07-04T11:56:53Z</time>
      </trkpt>
      <trkpt lat="44.11683" lon="7.17539">
        <ele>2611</ele>
        <time>2022-07-04T11:58:02Z</time>
      </trkpt>
      <trkpt lat="44.11695" lon="7.17537">
        <ele>2612</ele>
        <time>2022-07-04T11:58:18Z</time>
      </trkpt>
      <trkpt lat="44.11703" lon="7.17541">
        <ele>2612</ele>
        <time>2022-07-04T11:58:29Z</time>
      </trkpt>
      <trkpt lat="44.11718" lon="7.17535">
        <ele>2614</ele>
        <time>2022-07-04T11:58:50Z</time>
      </trkpt>
      <trkpt lat="44.11736" lon="7.17546">
        <ele>2613</ele>
        <time>2022-07-04T11:59:16Z</time>
      </trkpt>
      <trkpt lat="44.11793" lon="7.17542">
        <ele>2610</ele>
        <time>2022-07-04T12:00:32Z</time>
      </trkpt>
      <trkpt lat="44.1182" lon="7.17533">
        <ele>2609</ele>
        <time>2022-07-04T12:01:09Z</time>
      </trkpt>
      <trkpt lat="44.11933" lon="7.17534">
        <ele>2607</ele>
        <time>2022-07-04T12:03:40Z</time>
      </trkpt>
      <trkpt lat="44.11955" lon="7.17522">
        <ele>2611</ele>
        <time>2022-07-04T12:04:12Z</time>
      </trkpt>
      <trkpt lat="44.1201" lon="7.17534">
        <ele>2616</ele>
        <time>2022-07-04T12:05:26Z</time>
      </trkpt>
      <trkpt lat="44.12091" lon="7.17546">
        <ele>2611</ele>
        <time>2022-07-04T12:07:15Z</time>
      </trkpt>
      <trkpt lat="44.12114" lon="7.17541">
        <ele>2612</ele>
        <time>2022-07-04T12:07:46Z</time>
      </trkpt>
      <trkpt lat="44.12153" lon="7.17544">
        <ele>2615</ele>
        <time>2022-07-04T12:08:38Z</time>
      </trkpt>
      <trkpt lat="44.12069" lon="7.17756">
        <ele>2553</ele>
        <time>2022-07-04T12:12:30Z</time>
      </trkpt>
      <trkpt lat="44.12072" lon="7.17851">
        <ele>2509</ele>
        <time>2022-07-04T12:14:01Z</time>
      </trkpt>
      <trkpt lat="44.12055" lon="7.17855">
        <ele>2503</ele>
        <time>2022-07-04T12:14:24Z</time>
      </trkpt>
      <trkpt lat="44.12057" lon="7.17871">
        <ele>2498</ele>
        <time>2022-07-04T12:14:40Z</time>
      </trkpt>
      <trkpt lat="44.12063" lon="7.17885">
        <ele>2494</ele>
        <time>2022-07-04T12:14:55Z</time>
      </trkpt>
      <trkpt lat="44.12067" lon="7.17921">
        <ele>2484</ele>
        <time>2022-07-04T12:15:30Z</time>
      </trkpt>
      <trkpt lat="44.12044" lon="7.17922">
        <ele>2479</ele>
        <time>2022-07-04T12:16:01Z</time>
      </trkpt>
      <trkpt lat="44.12029" lon="7.17937">
        <ele>2476</ele>
        <time>2022-07-04T12:16:25Z</time>
      </trkpt>
      <trkpt lat="44.12017" lon="7.17944">
        <ele>2474</ele>
        <time>2022-07-04T12:16:43Z</time>
      </trkpt>
      <trkpt lat="44.11985" lon="7.17973">
        <ele>2464</ele>
        <time>2022-07-04T12:17:34Z</time>
      </trkpt>
      <trkpt lat="44.11967" lon="7.17996">
        <ele>2456</ele>
        <time>2022-07-04T12:18:06Z</time>
      </trkpt>
      <trkpt lat="44.11948" lon="7.18016">
        <ele>2449</ele>
        <time>2022-07-04T12:18:38Z</time>
      </trkpt>
      <trkpt lat="44.11941" lon="7.18031">
        <ele>2447</ele>
        <time>2022-07-04T12:18:55Z</time>
      </trkpt>
      <trkpt lat="44.11928" lon="7.18041">
        <ele>2442</ele>
        <time>2022-07-04T12:19:15Z</time>
      </trkpt>
      <trkpt lat="44.11897" lon="7.1805">
        <ele>2434</ele>
        <time>2022-07-04T12:19:57Z</time>
      </trkpt>
      <trkpt lat="44.11869" lon="7.18079">
        <ele>2428</ele>
        <time>2022-07-04T12:20:44Z</time>
      </trkpt>
      <trkpt lat="44.11863" lon="7.1809">
        <ele>2427</ele>
        <time>2022-07-04T12:20:57Z</time>
      </trkpt>
      <trkpt lat="44.11847" lon="7.18107">
        <ele>2422</ele>
        <time>2022-07-04T12:21:24Z</time>
      </trkpt>
      <trkpt lat="44.11846" lon="7.18119">
        <ele>2422</ele>
        <time>2022-07-04T12:21:36Z</time>
      </trkpt>
      <trkpt lat="44.11832" lon="7.18152">
        <ele>2418</ele>
        <time>2022-07-04T12:22:12Z</time>
      </trkpt>
      <trkpt lat="44.11822" lon="7.18204">
        <ele>2411</ele>
        <time>2022-07-04T12:23:04Z</time>
      </trkpt>
      <trkpt lat="44.11808" lon="7.18252">
        <ele>2403</ele>
        <time>2022-07-04T12:23:53Z</time>
      </trkpt>
      <trkpt lat="44.11798" lon="7.18328">
        <ele>2387</ele>
        <time>2022-07-04T12:25:08Z</time>
      </trkpt>
      <trkpt lat="44.11792" lon="7.18349">
        <ele>2380</ele>
        <time>2022-07-04T12:25:29Z</time>
      </trkpt>
      <trkpt lat="44.11782" lon="7.18365">
        <ele>2373</ele>
        <time>2022-07-04T12:25:49Z</time>
      </trkpt>
      <trkpt lat="44.11772" lon="7.18371">
        <ele>2368</ele>
        <time>2022-07-04T12:26:04Z</time>
      </trkpt>
      <trkpt lat="44.11757" lon="7.18367">
        <ele>2363</ele>
        <time>2022-07-04T12:26:24Z</time>
      </trkpt>
      <trkpt lat="44.11727" lon="7.18375">
        <ele>2352</ele>
        <time>2022-07-04T12:27:05Z</time>
      </trkpt>
      <trkpt lat="44.11708" lon="7.18377">
        <ele>2347</ele>
        <time>2022-07-04T12:27:31Z</time>
      </trkpt>
      <trkpt lat="44.1157" lon="7.18464">
        <ele>2312</ele>
        <time>2022-07-04T12:30:53Z</time>
      </trkpt>
      <trkpt lat="44.11565" lon="7.18539">
        <ele>2305</ele>
        <time>2022-07-04T12:32:05Z</time>
      </trkpt>
      <trkpt lat="44.11543" lon="7.18578">
        <ele>2300</ele>
        <time>2022-07-04T12:32:52Z</time>
      </trkpt>
      <trkpt lat="44.11517" lon="7.18587">
        <ele>2296</ele>
        <time>2022-07-04T12:33:28Z</time>
      </trkpt>
      <trkpt lat="44.11469" lon="7.18619">
        <ele>2290</ele>
        <time>2022-07-04T12:34:39Z</time>
      </trkpt>
      <trkpt lat="44.11436" lon="7.18659">
        <ele>2281</ele>
        <time>2022-07-04T12:35:38Z</time>
      </trkpt>
      <trkpt lat="44.1143" lon="7.18664">
        <ele>2279</ele>
        <time>2022-07-04T12:35:47Z</time>
      </trkpt>
      <trkpt lat="44.11427" lon="7.18672">
        <ele>2278</ele>
        <time>2022-07-04T12:35:56Z</time>
      </trkpt>
      <trkpt lat="44.11407" lon="7.18682">
        <ele>2272</ele>
        <time>2022-07-04T12:36:24Z</time>
      </trkpt>
      <trkpt lat="44.11388" lon="7.18697">
        <ele>2265</ele>
        <time>2022-07-04T12:36:53Z</time>
      </trkpt>
      <trkpt lat="44.11358" lon="7.18709">
        <ele>2256</ele>
        <time>2022-07-04T12:37:35Z</time>
      </trkpt>
      <trkpt lat="44.11351" lon="7.1872">
        <ele>2252</ele>
        <time>2022-07-04T12:37:49Z</time>
      </trkpt>
      <trkpt lat="44.11343" lon="7.18738">
        <ele>2247</ele>
        <time>2022-07-04T12:38:09Z</time>
      </trkpt>
      <trkpt lat="44.11337" lon="7.18748">
        <ele>2244</ele>
        <time>2022-07-04T12:38:22Z</time>
      </trkpt>
      <trkpt lat="44.11325" lon="7.18761">
        <ele>2240</ele>
        <time>2022-07-04T12:38:42Z</time>
      </trkpt>
      <trkpt lat="44.11297" lon="7.18779">
        <ele>2236</ele>
        <time>2022-07-04T12:39:23Z</time>
      </trkpt>
      <trkpt lat="44.11281" lon="7.18807">
        <ele>2233</ele>
        <time>2022-07-04T12:39:57Z</time>
      </trkpt>
      <trkpt lat="44.11276" lon="7.18827">
        <ele>2232</ele>
        <time>2022-07-04T12:40:18Z</time>
      </trkpt>
      <trkpt lat="44.11267" lon="7.1884">
        <ele>2232</ele>
        <time>2022-07-04T12:40:35Z</time>
      </trkpt>
      <trkpt lat="44.11258" lon="7.18847">
        <ele>2232</ele>
        <time>2022-07-04T12:40:49Z</time>
      </trkpt>
      <trkpt lat="44.11246" lon="7.1885">
        <ele>2231</ele>
        <time>2022-07-04T12:41:05Z</time>
      </trkpt>
      <trkpt lat="44.11238" lon="7.18851">
        <ele>2230</ele>
        <time>2022-07-04T12:41:16Z</time>
      </trkpt>
      <trkpt lat="44.11227" lon="7.18883">
        <ele>2230</ele>
        <time>2022-07-04T12:41:50Z</time>
      </trkpt>
      <trkpt lat="44.1122" lon="7.18873">
        <ele>2229</ele>
        <time>2022-07-04T12:42:03Z</time>
      </trkpt>
      <trkpt lat="44.1121" lon="7.18867">
        <ele>2227</ele>
        <time>2022-07-04T12:42:18Z</time>
      </trkpt>
      <trkpt lat="44.11169" lon="7.18862">
        <ele>2222</ele>
        <time>2022-07-04T12:43:12Z</time>
      </trkpt>
      <trkpt lat="44.11166" lon="7.1886">
        <ele>2221</ele>
        <time>2022-07-04T12:43:17Z</time>
      </trkpt>
      <trkpt lat="44.11157" lon="7.18863">
        <ele>2219</ele>
        <time>2022-07-04T12:43:29Z</time>
      </trkpt>
      <trkpt lat="44.11128" lon="7.1888">
        <ele>2214</ele>
        <time>2022-07-04T12:44:11Z</time>
      </trkpt>
      <trkpt lat="44.1112" lon="7.18882">
        <ele>2212</ele>
        <time>2022-07-04T12:44:22Z</time>
      </trkpt>
      <trkpt lat="44.11114" lon="7.18886">
        <ele>2211</ele>
        <time>2022-07-04T12:44:31Z</time>
      </trkpt>
      <trkpt lat="44.11102" lon="7.1889">
        <ele>2209</ele>
        <time>2022-07-04T12:44:47Z</time>
      </trkpt>
      <trkpt lat="44.11073" lon="7.18918">
        <ele>2205</ele>
        <time>2022-07-04T12:45:34Z</time>
      </trkpt>
      <trkpt lat="44.11066" lon="7.18927">
        <ele>2204</ele>
        <time>2022-07-04T12:45:47Z</time>
      </trkpt>
      <trkpt lat="44.11057" lon="7.18933">
        <ele>2203</ele>
        <time>2022-07-04T12:46:01Z</time>
      </trkpt>
      <trkpt lat="44.11026" lon="7.18942">
        <ele>2198</ele>
        <time>2022-07-04T12:46:43Z</time>
      </trkpt>
      <trkpt lat="44.11006" lon="7.18934">
        <ele>2191</ele>
        <time>2022-07-04T12:47:11Z</time>
      </trkpt>
      <trkpt lat="44.10995" lon="7.18934">
        <ele>2190</ele>
        <time>2022-07-04T12:47:25Z</time>
      </trkpt>
      <trkpt lat="44.10981" lon="7.1893">
        <ele>2189</ele>
        <time>2022-07-04T12:47:44Z</time>
      </trkpt>
      <trkpt lat="44.10977" lon="7.18931">
        <ele>2189</ele>
        <time>2022-07-04T12:47:50Z</time>
      </trkpt>
      <trkpt lat="44.10973" lon="7.18926">
        <ele>2188</ele>
        <time>2022-07-04T12:47:57Z</time>
      </trkpt>
      <trkpt lat="44.10964" lon="7.18923">
        <ele>2187</ele>
        <time>2022-07-04T12:48:09Z</time>
      </trkpt>
      <trkpt lat="44.10948" lon="7.18923">
        <ele>2187</ele>
        <time>2022-07-04T12:48:31Z</time>
      </trkpt>
      <trkpt lat="44.10932" lon="7.18912">
        <ele>2184</ele>
        <time>2022-07-04T12:48:54Z</time>
      </trkpt>
      <trkpt lat="44.10909" lon="7.18904">
        <ele>2182</ele>
        <time>2022-07-04T12:49:26Z</time>
      </trkpt>
      <trkpt lat="44.10873" lon="7.18906">
        <ele>2187</ele>
        <time>2022-07-04T12:50:14Z</time>
      </trkpt>
      <trkpt lat="44.10849" lon="7.18895">
        <ele>2186</ele>
        <time>2022-07-04T12:50:48Z</time>
      </trkpt>
      <trkpt lat="44.10823" lon="7.18889">
        <ele>2186</ele>
        <time>2022-07-04T12:51:23Z</time>
      </trkpt>
      <trkpt lat="44.10811" lon="7.18886">
        <ele>2185</ele>
        <time>2022-07-04T12:51:39Z</time>
      </trkpt>
      <trkpt lat="44.10802" lon="7.18887">
        <ele>2185</ele>
        <time>2022-07-04T12:51:51Z</time>
      </trkpt>
      <trkpt lat="44.10789" lon="7.18882">
        <ele>2183</ele>
        <time>2022-07-04T12:52:09Z</time>
      </trkpt>
      <trkpt lat="44.10755" lon="7.18879">
        <ele>2182</ele>
        <time>2022-07-04T12:52:55Z</time>
      </trkpt>
      <trkpt lat="44.10738" lon="7.18886">
        <ele>2183</ele>
        <time>2022-07-04T12:53:18Z</time>
      </trkpt>
      <trkpt lat="44.10718" lon="7.1889">
        <ele>2182</ele>
        <time>2022-07-04T12:53:45Z</time>
      </trkpt>
      <trkpt lat="44.10706" lon="7.18903">
        <ele>2184</ele>
        <time>2022-07-04T12:54:06Z</time>
      </trkpt>
      <trkpt lat="44.10696" lon="7.18903">
        <ele>2183</ele>
        <time>2022-07-04T12:54:19Z</time>
      </trkpt>
      <trkpt lat="44.10683" lon="7.18911">
        <ele>2184</ele>
        <time>2022-07-04T12:54:38Z</time>
      </trkpt>
      <trkpt lat="44.10676" lon="7.18913">
        <ele>2184</ele>
        <time>2022-07-04T12:54:48Z</time>
      </trkpt>
      <trkpt lat="44.10657" lon="7.18912">
        <ele>2183</ele>
        <time>2022-07-04T12:55:13Z</time>
      </trkpt>
      <trkpt lat="44.10654" lon="7.1891">
        <ele>2183</ele>
        <time>2022-07-04T12:55:17Z</time>
      </trkpt>
      <trkpt lat="44.10632" lon="7.18907">
        <ele>2184</ele>
        <time>2022-07-04T12:55:47Z</time>
      </trkpt>
      <trkpt lat="44.10607" lon="7.1891">
        <ele>2186</ele>
        <time>2022-07-04T12:56:20Z</time>
      </trkpt>
      <trkpt lat="44.10599" lon="7.18909">
        <ele>2187</ele>
        <time>2022-07-04T12:56:31Z</time>
      </trkpt>
      <trkpt lat="44.10561" lon="7.18918">
        <ele>2193</ele>
        <time>2022-07-04T12:57:22Z</time>
      </trkpt>
      <trkpt lat="44.10545" lon="7.18909">
        <ele>2191</ele>
        <time>2022-07-04T12:57:46Z</time>
      </trkpt>
      <trkpt lat="44.10531" lon="7.18888">
        <ele>2186</ele>
        <time>2022-07-04T12:58:13Z</time>
      </trkpt>
      <trkpt lat="44.10512" lon="7.18873">
        <ele>2183</ele>
        <time>2022-07-04T12:58:42Z</time>
      </trkpt>
      <trkpt lat="44.10508" lon="7.18866">
        <ele>2181</ele>
        <time>2022-07-04T12:58:51Z</time>
      </trkpt>
      <trkpt lat="44.10499" lon="7.18857">
        <ele>2179</ele>
        <time>2022-07-04T12:59:05Z</time>
      </trkpt>
      <trkpt lat="44.10489" lon="7.18851">
        <ele>2178</ele>
        <time>2022-07-04T12:59:20Z</time>
      </trkpt>
      <trkpt lat="44.10485" lon="7.18852">
        <ele>2179</ele>
        <time>2022-07-04T12:59:25Z</time>
      </trkpt>
      <trkpt lat="44.1048" lon="7.18849">
        <ele>2178</ele>
        <time>2022-07-04T12:59:33Z</time>
      </trkpt>
      <trkpt lat="44.10469" lon="7.18839">
        <ele>2177</ele>
        <time>2022-07-04T12:59:50Z</time>
      </trkpt>
      <trkpt lat="44.10451" lon="7.18836">
        <ele>2178</ele>
        <time>2022-07-04T13:00:14Z</time>
      </trkpt>
      <trkpt lat="44.10438" lon="7.18831">
        <ele>2179</ele>
        <time>2022-07-04T13:00:32Z</time>
      </trkpt>
      <trkpt lat="44.1043" lon="7.18825">
        <ele>2178</ele>
        <time>2022-07-04T13:00:45Z</time>
      </trkpt>
      <trkpt lat="44.10417" lon="7.18824">
        <ele>2180</ele>
        <time>2022-07-04T13:01:02Z</time>
      </trkpt>
      <trkpt lat="44.10402" lon="7.1882">
        <ele>2178</ele>
        <time>2022-07-04T13:01:22Z</time>
      </trkpt>
      <trkpt lat="44.10395" lon="7.1882">
        <ele>2178</ele>
        <time>2022-07-04T13:01:32Z</time>
      </trkpt>
      <trkpt lat="44.10388" lon="7.18828">
        <ele>2179</ele>
        <time>2022-07-04T13:01:44Z</time>
      </trkpt>
      <trkpt lat="44.10388" lon="7.18839">
        <ele>2180</ele>
        <time>2022-07-04T13:01:54Z</time>
      </trkpt>
      <trkpt lat="44.10382" lon="7.18835">
        <ele>2179</ele>
        <time>2022-07-04T13:02:03Z</time>
      </trkpt>
      <trkpt lat="44.10378" lon="7.1883">
        <ele>2179</ele>
        <time>2022-07-04T13:02:10Z</time>
      </trkpt>
      <trkpt lat="44.1037" lon="7.18832">
        <ele>2178</ele>
        <time>2022-07-04T13:02:21Z</time>
      </trkpt>
      <trkpt lat="44.10372" lon="7.18837">
        <ele>2178</ele>
        <time>2022-07-04T13:02:27Z</time>
      </trkpt>
      <trkpt lat="44.10363" lon="7.18839">
        <ele>2177</ele>
        <time>2022-07-04T13:02:39Z</time>
      </trkpt>
      <trkpt lat="44.10348" lon="7.18837">
        <ele>2176</ele>
        <time>2022-07-04T13:02:59Z</time>
      </trkpt>
      <trkpt lat="44.10344" lon="7.18835">
        <ele>2176</ele>
        <time>2022-07-04T13:03:05Z</time>
      </trkpt>
      <trkpt lat="44.10343" lon="7.1884">
        <ele>2175</ele>
        <time>2022-07-04T13:03:10Z</time>
      </trkpt>
      <trkpt lat="44.10367" lon="7.18874">
        <ele>2174</ele>
        <time>2022-07-04T13:03:55Z</time>
      </trkpt>
      <trkpt lat="44.10374" lon="7.18903">
        <ele>2174</ele>
        <time>2022-07-04T13:04:25Z</time>
      </trkpt>
      <trkpt lat="44.10372" lon="7.18905">
        <ele>2173</ele>
        <time>2022-07-04T13:04:28Z</time>
      </trkpt>
      <trkpt lat="44.10367" lon="7.18898">
        <ele>2172</ele>
        <time>2022-07-04T13:04:37Z</time>
      </trkpt>
      <trkpt lat="44.10359" lon="7.18893">
        <ele>2170</ele>
        <time>2022-07-04T13:04:49Z</time>
      </trkpt>
      <trkpt lat="44.10325" lon="7.18896">
        <ele>2158</ele>
        <time>2022-07-04T13:05:34Z</time>
      </trkpt>
      <trkpt lat="44.10308" lon="7.18907">
        <ele>2151</ele>
        <time>2022-07-04T13:05:59Z</time>
      </trkpt>
      <trkpt lat="44.10301" lon="7.18916">
        <ele>2148</ele>
        <time>2022-07-04T13:06:12Z</time>
      </trkpt>
      <trkpt lat="44.10295" lon="7.18916">
        <ele>2146</ele>
        <time>2022-07-04T13:06:20Z</time>
      </trkpt>
      <trkpt lat="44.10263" lon="7.18897">
        <ele>2141</ele>
        <time>2022-07-04T13:07:07Z</time>
      </trkpt>
      <trkpt lat="44.10271" lon="7.1893">
        <ele>2138</ele>
        <time>2022-07-04T13:07:40Z</time>
      </trkpt>
      <trkpt lat="44.10267" lon="7.18927">
        <ele>2137</ele>
        <time>2022-07-04T13:07:46Z</time>
      </trkpt>
      <trkpt lat="44.10266" lon="7.18923">
        <ele>2138</ele>
        <time>2022-07-04T13:07:50Z</time>
      </trkpt>
      <trkpt lat="44.10258" lon="7.18922">
        <ele>2135</ele>
        <time>2022-07-04T13:08:01Z</time>
      </trkpt>
      <trkpt lat="44.10259" lon="7.18926">
        <ele>2135</ele>
        <time>2022-07-04T13:08:05Z</time>
      </trkpt>
      <trkpt lat="44.10261" lon="7.18927">
        <ele>2136</ele>
        <time>2022-07-04T13:08:08Z</time>
      </trkpt>
      <trkpt lat="44.10261" lon="7.18936">
        <ele>2135</ele>
        <time>2022-07-04T13:08:16Z</time>
      </trkpt>
      <trkpt lat="44.10221" lon="7.18918">
        <ele>2126</ele>
        <time>2022-07-04T13:09:12Z</time>
      </trkpt>
      <trkpt lat="44.10224" lon="7.18935">
        <ele>2126</ele>
        <time>2022-07-04T13:09:29Z</time>
      </trkpt>
      <trkpt lat="44.10223" lon="7.18938">
        <ele>2125</ele>
        <time>2022-07-04T13:09:32Z</time>
      </trkpt>
      <trkpt lat="44.10214" lon="7.18933">
        <ele>2123</ele>
        <time>2022-07-04T13:09:45Z</time>
      </trkpt>
      <trkpt lat="44.10203" lon="7.18932">
        <ele>2121</ele>
        <time>2022-07-04T13:10:00Z</time>
      </trkpt>
      <trkpt lat="44.10192" lon="7.18935">
        <ele>2118</ele>
        <time>2022-07-04T13:10:15Z</time>
      </trkpt>
      <trkpt lat="44.10179" lon="7.18924">
        <ele>2115</ele>
        <time>2022-07-04T13:10:35Z</time>
      </trkpt>
      <trkpt lat="44.10172" lon="7.18916">
        <ele>2113</ele>
        <time>2022-07-04T13:10:47Z</time>
      </trkpt>
      <trkpt lat="44.10161" lon="7.18893">
        <ele>2111</ele>
        <time>2022-07-04T13:11:14Z</time>
      </trkpt>
      <trkpt lat="44.10137" lon="7.18879">
        <ele>2104</ele>
        <time>2022-07-04T13:11:49Z</time>
      </trkpt>
      <trkpt lat="44.10119" lon="7.18843">
        <ele>2096</ele>
        <time>2022-07-04T13:12:31Z</time>
      </trkpt>
      <trkpt lat="44.10113" lon="7.18822">
        <ele>2094</ele>
        <time>2022-07-04T13:12:52Z</time>
      </trkpt>
      <trkpt lat="44.10101" lon="7.18806">
        <ele>2090</ele>
        <time>2022-07-04T13:13:14Z</time>
      </trkpt>
      <trkpt lat="44.10085" lon="7.188">
        <ele>2085</ele>
        <time>2022-07-04T13:13:37Z</time>
      </trkpt>
      <trkpt lat="44.10066" lon="7.18791">
        <ele>2080</ele>
        <time>2022-07-04T13:14:03Z</time>
      </trkpt>
      <trkpt lat="44.10038" lon="7.18765">
        <ele>2073</ele>
        <time>2022-07-04T13:14:48Z</time>
      </trkpt>
      <trkpt lat="44.10023" lon="7.18743">
        <ele>2067</ele>
        <time>2022-07-04T13:15:17Z</time>
      </trkpt>
      <trkpt lat="44.10016" lon="7.18734">
        <ele>2066</ele>
        <time>2022-07-04T13:15:30Z</time>
      </trkpt>
      <trkpt lat="44.09996" lon="7.1873">
        <ele>2060</ele>
        <time>2022-07-04T13:15:57Z</time>
      </trkpt>
      <trkpt lat="44.09942" lon="7.18699">
        <ele>2051</ele>
        <time>2022-07-04T13:17:15Z</time>
      </trkpt>
      <trkpt lat="44.09924" lon="7.18687">
        <ele>2047</ele>
        <time>2022-07-04T13:17:42Z</time>
      </trkpt>
      <trkpt lat="44.09896" lon="7.18674">
        <ele>2042</ele>
        <time>2022-07-04T13:18:21Z</time>
      </trkpt>
      <trkpt lat="44.09875" lon="7.18657">
        <ele>2040</ele>
        <time>2022-07-04T13:18:53Z</time>
      </trkpt>
      <trkpt lat="44.09865" lon="7.18651">
        <ele>2040</ele>
        <time>2022-07-04T13:19:08Z</time>
      </trkpt>
      <trkpt lat="44.0985" lon="7.18655">
        <ele>2036</ele>
        <time>2022-07-04T13:19:28Z</time>
      </trkpt>
      <trkpt lat="44.09843" lon="7.18646">
        <ele>2037</ele>
        <time>2022-07-04T13:19:41Z</time>
      </trkpt>
    </trkseg>
  </trk>
</gpx>